Time;durP1;ratioP1;P1;durP2;ratioP2;P2;SDS_P1;SDS_P2;PMS_P1;PMS_P2;Temp;Humidity;BMP_temperature;BMP_pressure;BME280_temperature;BME280_humidity;BME280_pressure;Samples;Min_cycle;Max_cycle;Signal;HPM_P1;HPM_P2
2022/07/06 00:00:52;;;;;;;4.60;1.75;;;;;;;11.66;71.67;102466.16;5066806;28;20048;-72
2022/07/06 00:03:17;;;;;;;2.80;1.90;;;;;;;11.64;72.71;102478.97;5080491;28;20087;-73
2022/07/06 00:05:43;;;;;;;2.42;2.22;;;;;;;11.60;72.36;102471.91;5075546;28;20139;-73
2022/07/06 00:08:08;;;;;;;5.45;2.22;;;;;;;11.57;72.68;102470.22;5066686;28;20483;-73
2022/07/06 00:10:33;;;;;;;3.47;1.60;;;;;;;11.57;72.00;102474.81;5049497;28;20472;-69
2022/07/06 00:12:59;;;;;;;2.58;1.80;;;;;;;11.49;72.96;102476.06;5066299;28;20099;-73
2022/07/06 00:15:24;;;;;;;4.22;2.25;;;;;;;11.42;73.23;102485.50;5066541;28;20403;-73
2022/07/06 00:17:49;;;;;;;3.78;1.83;;;;;;;11.40;72.48;102484.69;5049300;28;20451;-70
2022/07/06 00:20:15;;;;;;;5.05;1.88;;;;;;;11.34;73.53;102487.72;5066485;28;20040;-73
2022/07/06 00:22:40;;;;;;;2.45;1.85;;;;;;;11.27;74.00;102488.09;5066551;28;20037;-74
2022/07/06 00:25:06;;;;;;;2.25;1.80;;;;;;;11.21;73.37;102489.28;5081278;28;20058;-73
2022/07/06 00:27:31;;;;;;;5.40;2.30;;;;;;;11.18;73.64;102490.28;5082159;28;20106;-70
2022/07/06 00:29:57;;;;;;;4.57;2.08;;;;;;;11.19;74.01;102485.72;5066097;28;20040;-73
2022/07/06 00:32:22;;;;;;;3.38;2.00;;;;;;;11.17;73.34;102483.09;5080329;28;20064;-72
2022/07/06 00:34:48;;;;;;;2.22;2.00;;;;;;;11.16;73.67;102473.16;5081366;28;20036;-71
2022/07/06 00:37:15;;;;;;;2.80;1.98;;;;;;;11.17;73.33;102485.81;5067099;28;20446;-73
2022/07/06 00:39:40;;;;;;;8.93;2.25;;;;;;;11.14;73.82;102479.63;5066251;28;20036;-73
2022/07/06 00:42:06;;;;;;;5.15;2.25;;;;;;;11.14;73.58;102485.06;5080835;28;20083;-71
2022/07/06 00:44:33;;;;;;;3.58;1.88;;;;;;;11.12;73.99;102479.72;5064793;28;20131;-72
2022/07/06 00:46:59;;;;;;;3.17;1.88;;;;;;;11.10;73.35;102480.75;5065887;28;20037;-72
2022/07/06 00:52:09;;;;;;;5.30;2.15;;;;;;;11.03;74.13;102490.16;5065146;28;20040;-73
2022/07/06 00:54:35;;;;;;;4.30;1.85;;;;;;;10.99;73.69;102479.41;5065938;28;20478;-72
2022/07/06 00:57:01;;;;;;;5.13;2.15;;;;;;;10.98;73.69;102483.09;5048213;28;20086;-73
2022/07/06 00:59:27;;;;;;;2.97;1.83;;;;;;;10.92;74.56;102477.97;5063746;28;20116;-73
2022/07/06 01:01:52;;;;;;;4.03;2.10;;;;;;;10.92;74.28;102485.25;5066937;28;20082;-73
2022/07/06 01:04:18;;;;;;;7.53;2.10;;;;;;;10.91;74.90;102478.00;5086351;28;20032;-74
2022/07/06 01:06:45;;;;;;;6.22;2.25;;;;;;;10.90;74.42;102481.69;5080132;28;20051;-73
2022/07/06 01:09:11;;;;;;;2.92;1.85;;;;;;;10.84;74.36;102479.28;5064454;28;20499;-73
2022/07/06 01:11:36;;;;;;;4.53;2.22;;;;;;;10.83;74.52;102488.41;5064469;28;20043;-72
2022/07/06 01:14:02;;;;;;;4.82;2.30;;;;;;;10.74;75.20;102478.81;5063707;28;20040;-73
2022/07/06 01:16:28;;;;;;;2.47;1.75;;;;;;;10.72;75.24;102478.91;5065369;28;20040;-73
2022/07/06 01:18:53;;;;;;;3.17;2.25;;;;;;;10.70;76.10;102474.47;5065085;28;20036;-73
2022/07/06 01:21:19;;;;;;;5.20;2.15;;;;;;;10.71;75.12;102477.13;5068633;28;20135;-73
2022/07/06 01:23:46;;;;;;;5.88;2.42;;;;;;;10.69;75.06;102480.88;5064130;28;20036;-73
2022/07/06 01:26:14;;;;;;;3.35;1.90;;;;;;;10.66;75.28;102476.44;5065793;28;20511;-72
2022/07/06 01:28:40;;;;;;;3.38;2.30;;;;;;;10.64;75.17;102481.09;5062725;28;20045;-73
2022/07/06 01:31:14;;;;;;;3.40;2.20;;;;;;;10.62;74.88;102476.66;5063909;28;20032;-72
2022/07/06 01:33:39;;;;;;;6.05;2.40;;;;;;;10.61;75.13;102473.06;5081529;28;20486;-73
2022/07/06 01:36:04;;;;;;;3.45;2.10;;;;;;;10.63;75.41;102483.88;5071750;28;20125;-72
2022/07/06 01:38:30;;;;;;;9.55;2.47;;;;;;;10.62;75.23;102479.38;5066035;28;20456;-73
2022/07/06 01:40:55;;;;;;;2.33;1.88;;;;;;;10.59;74.49;102477.72;5065663;28;20041;-73
2022/07/06 01:43:20;;;;;;;5.38;2.22;;;;;;;10.56;75.51;102472.41;5067919;28;20080;-73
2022/07/06 01:45:46;;;;;;;4.53;2.72;;;;;;;10.53;75.81;102477.09;5063988;28;20094;-73
2022/07/06 01:48:12;;;;;;;4.82;2.70;;;;;;;10.53;75.70;102477.09;5065905;28;20093;-72
2022/07/06 01:50:38;;;;;;;4.57;3.03;;;;;;;10.54;75.97;102476.13;5063398;28;20036;-71
2022/07/06 01:53:03;;;;;;;4.50;3.03;;;;;;;10.46;76.61;102476.50;5063897;28;20495;-68
2022/07/06 01:55:29;;;;;;;5.43;2.38;;;;;;;10.43;76.38;102479.34;5081678;28;20036;-73
2022/07/06 01:57:54;;;;;;;7.78;3.33;;;;;;;10.39;75.66;102475.00;5073917;28;20051;-73
2022/07/06 02:00:20;;;;;;;4.15;2.67;;;;;;;10.39;76.02;102466.84;5064782;28;20036;-72
2022/07/06 02:02:49;;;;;;;3.65;2.50;;;;;;;10.36;76.14;102472.44;5072924;28;20096;-73
2022/07/06 02:05:14;;;;;;;7.43;3.10;;;;;;;10.35;76.94;102473.38;5077018;28;20056;-73
2022/07/06 02:07:40;;;;;;;3.10;2.80;;;;;;;10.33;76.20;102473.44;5064309;28;20032;-72
2022/07/06 02:10:07;;;;;;;5.70;2.75;;;;;;;10.29;76.00;102482.69;5064249;28;20036;-72
2022/07/06 02:12:32;;;;;;;4.88;3.13;;;;;;;10.29;76.21;102476.38;5048642;28;20036;-73
2022/07/06 02:14:58;;;;;;;5.57;3.10;;;;;;;10.27;76.63;102484.63;5068758;28;20025;-73
2022/07/06 02:17:23;;;;;;;3.08;2.70;;;;;;;10.25;76.60;102485.63;5067983;28;20043;-72
2022/07/06 02:19:49;;;;;;;4.32;3.10;;;;;;;10.27;76.16;102486.47;5067279;28;21048;-72
2022/07/06 02:22:14;;;;;;;7.78;3.63;;;;;;;10.24;76.58;102479.31;5069283;28;20032;-73
2022/07/06 02:24:40;;;;;;;6.72;3.50;;;;;;;10.27;77.20;102478.28;5067144;28;20475;-73
2022/07/06 02:27:06;;;;;;;8.85;3.83;;;;;;;10.25;77.64;102474.75;5066836;28;20066;-72
2022/07/06 02:29:31;;;;;;;7.47;3.47;;;;;;;10.22;76.92;102479.34;5066704;28;20594;-72
2022/07/06 02:31:57;;;;;;;7.53;3.15;;;;;;;10.18;77.64;102479.56;5068982;28;20033;-73
2022/07/06 02:34:23;;;;;;;6.80;4.85;;;;;;;10.16;77.70;102485.03;5085490;28;20218;-72
2022/07/06 02:36:49;;;;;;;8.55;4.43;;;;;;;10.16;78.93;102482.31;5066737;28;20036;-73
2022/07/06 02:39:15;;;;;;;6.00;4.00;;;;;;;10.15;78.61;102474.22;5066901;28;20059;-73
2022/07/06 02:41:41;;;;;;;7.65;4.18;;;;;;;10.17;77.74;102475.94;5067233;28;20499;-73
2022/07/06 02:44:06;;;;;;;7.82;4.30;;;;;;;10.14;79.02;102478.78;5066615;28;20394;-69
2022/07/06 02:46:32;;;;;;;4.70;3.60;;;;;;;10.15;76.94;102483.28;5084900;28;20039;-72
2022/07/06 02:48:57;;;;;;;6.50;3.75;;;;;;;10.11;77.37;102478.91;5076195;28;20032;-73
2022/07/06 02:51:23;;;;;;;8.10;3.60;;;;;;;10.08;77.70;102479.06;5068231;28;20280;-72
2022/07/06 02:53:49;;;;;;;9.73;4.03;;;;;;;10.05;77.57;102478.31;5052939;28;20024;-72
2022/07/06 02:56:15;;;;;;;6.15;3.90;;;;;;;10.03;77.89;102478.41;5066926;28;20041;-72
2022/07/06 02:58:40;;;;;;;6.53;3.55;;;;;;;10.06;77.41;102482.81;5047996;28;20051;-73
2022/07/06 03:01:06;;;;;;;6.95;3.65;;;;;;;10.05;77.36;102484.63;5049753;28;20029;-73
2022/07/06 03:03:33;;;;;;;6.47;4.35;;;;;;;10.06;76.99;102483.69;5082291;28;20391;-68
2022/07/06 03:05:59;;;;;;;9.23;4.07;;;;;;;10.05;77.53;102486.47;5065909;28;20044;-73
2022/07/06 03:08:26;;;;;;;6.95;4.00;;;;;;;10.05;77.37;102484.63;5055079;28;20390;-73
2022/07/06 03:10:51;;;;;;;7.00;3.83;;;;;;;10.04;77.68;102487.44;5086947;28;20119;-73
2022/07/06 03:13:16;;;;;;;9.23;4.40;;;;;;;10.02;78.42;102482.03;5070303;28;20474;-73
2022/07/06 03:15:43;;;;;;;7.05;4.15;;;;;;;10.02;78.15;102486.59;5072767;28;20063;-72
2022/07/06 03:18:09;;;;;;;7.53;3.83;;;;;;;10.05;77.76;102486.47;5068279;28;20040;-72
2022/07/06 03:20:34;;;;;;;7.57;4.00;;;;;;;10.03;78.08;102489.28;5066092;28;20059;-72
2022/07/06 03:23:00;;;;;;;5.82;4.30;;;;;;;10.04;77.97;102491.03;5066303;28;20033;-73
2022/07/06 03:25:25;;;;;;;7.25;4.35;;;;;;;10.05;77.58;102490.06;5066424;28;20032;-72
2022/07/06 03:27:52;;;;;;;8.32;4.00;;;;;;;10.05;77.59;102487.34;5048580;28;20380;-72
2022/07/06 03:30:18;;;;;;;6.95;4.22;;;;;;;10.06;77.62;102493.69;5048981;28;20166;-72
2022/07/06 03:32:49;;;;;;;4.65;3.75;;;;;;;10.06;77.23;102493.69;5075214;28;20044;-72
2022/07/06 03:35:15;;;;;;;9.55;4.00;;;;;;;10.05;77.44;102495.53;5082105;28;20436;-72
2022/07/06 03:37:42;;;;;;;6.15;3.92;;;;;;;10.01;77.94;102488.44;5066509;28;20181;-73
2022/07/06 03:40:08;;;;;;;7.90;4.40;;;;;;;10.01;77.51;102490.28;5081659;28;20602;-72
2022/07/06 03:42:33;;;;;;;5.80;3.80;;;;;;;10.01;77.80;102484.84;5065325;28;20025;-70
2022/07/06 03:45:00;;;;;;;5.70;3.90;;;;;;;10.04;77.43;102490.16;5072576;28;20111;-72
2022/07/06 03:47:28;;;;;;;5.80;4.40;;;;;;;10.03;78.98;102491.13;5088107;28;20110;-73
2022/07/06 03:49:53;;;;;;;6.68;4.05;;;;;;;10.04;78.19;102485.59;5082712;28;20028;-72
2022/07/06 03:52:19;;;;;;;6.47;4.05;;;;;;;10.08;78.79;102489.94;5082994;28;20496;-73
2022/07/06 03:54:49;;;;;;;7.43;3.72;;;;;;;10.11;78.37;102491.63;5068590;28;20033;-72
2022/07/06 03:57:21;;;;;;;10.50;3.80;;;;;;;10.14;78.04;102486.97;5065107;28;20047;-72
2022/07/06 03:59:46;;;;;;;6.63;4.30;;;;;;;10.14;79.14;102492.41;5066512;28;20114;-72
2022/07/06 04:02:12;;;;;;;6.97;4.10;;;;;;;10.15;78.71;102493.28;5069634;28;20376;-73
2022/07/06 04:04:37;;;;;;;6.28;3.92;;;;;;;10.15;78.65;102487.84;5084598;28;20061;-71
2022/07/06 04:07:03;;;;;;;6.65;3.95;;;;;;;10.16;78.16;102490.47;5083005;28;20474;-69
2022/07/06 04:09:30;;;;;;;6.10;4.35;;;;;;;10.16;79.10;102476.88;5071549;28;20059;-73
2022/07/06 04:11:55;;;;;;;8.02;3.92;;;;;;;10.20;78.07;102492.13;5065073;28;20057;-72
2022/07/06 04:14:21;;;;;;;6.85;4.30;;;;;;;10.22;78.21;102483.91;5062743;28;20164;-73
2022/07/06 04:16:47;;;;;;;5.80;3.58;;;;;;;10.22;77.89;102471.19;5049060;28;20075;-71
2022/07/06 04:19:13;;;;;;;6.78;4.03;;;;;;;10.24;77.88;102479.31;5065673;28;20487;-72
2022/07/06 04:21:39;;;;;;;7.85;3.75;;;;;;;10.23;78.36;102472.06;5065172;28;20534;-70
2022/07/06 04:24:04;;;;;;;5.15;3.40;;;;;;;10.23;78.71;102477.50;5065034;28;20029;-72
2022/07/06 04:26:31;;;;;;;5.10;4.38;;;;;;;10.22;79.50;102468.47;5065807;28;20033;-72
2022/07/06 04:28:57;;;;;;;5.75;3.63;;;;;;;10.22;78.97;102465.75;5063746;28;20387;-72
2022/07/06 04:31:24;;;;;;;6.60;3.83;;;;;;;10.26;78.88;102471.97;5065369;28;20040;-72
2022/07/06 04:33:50;;;;;;;7.20;3.83;;;;;;;10.28;78.33;102466.47;5081259;28;20032;-73
2022/07/06 04:36:16;;;;;;;4.85;3.92;;;;;;;10.30;78.56;102473.56;5069552;28;20450;-72
2022/07/06 04:38:43;;;;;;;13.55;4.32;;;;;;;10.32;79.31;102477.13;5047776;28;20032;-73
2022/07/06 04:41:10;;;;;;;6.72;4.03;;;;;;;10.34;78.03;102469.75;5066377;28;20059;-72
2022/07/06 04:43:35;;;;;;;8.25;3.95;;;;;;;10.41;79.03;102476.72;5046639;28;20648;-72
2022/07/06 04:46:01;;;;;;;7.43;3.80;;;;;;;10.45;78.72;102478.34;5065059;28;20031;-72
2022/07/06 04:48:27;;;;;;;6.78;3.97;;;;;;;10.46;79.57;102469.22;5065465;28;20475;-72
2022/07/06 04:50:53;;;;;;;9.55;4.68;;;;;;;10.51;80.11;102473.56;5068272;28;20035;-72
2022/07/06 04:53:24;;;;;;;4.93;3.45;;;;;;;10.56;79.18;102479.69;5071091;28;20090;-69
2022/07/06 04:55:50;;;;;;;8.70;4.05;;;;;;;10.61;78.98;102483.94;5064625;28;20063;-72
2022/07/06 04:58:15;;;;;;;4.97;3.70;;;;;;;10.69;78.68;102480.88;5063589;28;20029;-71
2022/07/06 05:00:41;;;;;;;6.78;4.38;;;;;;;10.75;79.78;102480.59;5065690;28;20668;-72
2022/07/06 05:03:06;;;;;;;5.82;3.53;;;;;;;10.83;78.53;102474.78;5076085;28;20016;-72
2022/07/06 05:05:32;;;;;;;6.57;3.97;;;;;;;10.89;79.79;102485.38;5080696;28;20056;-72
2022/07/06 05:07:58;;;;;;;5.60;3.65;;;;;;;10.91;79.96;102478.91;5064482;28;20372;-72
2022/07/06 05:10:24;;;;;;;4.28;3.63;;;;;;;10.97;78.42;102483.19;5064753;28;20032;-72
2022/07/06 05:12:55;;;;;;;6.50;4.82;;;;;;;11.05;78.91;102483.72;5063376;28;20551;-72
2022/07/06 05:15:20;;;;;;;9.15;4.63;;;;;;;11.10;79.11;102481.63;5063708;28;20034;-72
2022/07/06 05:17:46;;;;;;;5.35;4.13;;;;;;;11.21;79.02;102497.44;5064662;28;20036;-72
2022/07/06 05:20:11;;;;;;;6.50;4.10;;;;;;;11.31;78.77;102496.03;5064048;28;20082;-72
2022/07/06 05:22:40;;;;;;;6.13;4.13;;;;;;;11.41;78.96;102493.75;5048442;28;20483;-73
2022/07/06 05:25:07;;;;;;;8.00;4.05;;;;;;;11.51;78.96;102500.50;5063810;28;20028;-72
2022/07/06 05:27:32;;;;;;;7.95;4.30;;;;;;;11.60;79.03;102497.31;5064785;28;20043;-72
2022/07/06 05:29:58;;;;;;;8.23;4.47;;;;;;;11.68;78.92;102502.38;5077057;28;20036;-72
2022/07/06 05:32:24;;;;;;;5.10;3.85;;;;;;;11.75;78.89;102491.09;5078387;28;20051;-72
2022/07/06 05:34:50;;;;;;;8.10;4.90;;;;;;;11.85;77.93;102496.13;5082172;28;20035;-72
2022/07/06 05:37:17;;;;;;;5.72;4.30;;;;;;;11.93;77.93;102494.72;5081306;28;20063;-72
2022/07/06 05:39:45;;;;;;;5.82;3.67;;;;;;;12.05;78.31;102498.69;5065160;28;20480;-72
2022/07/06 05:42:11;;;;;;;6.47;4.22;;;;;;;12.14;78.86;102495.47;5063563;28;20037;-72
2022/07/06 05:44:37;;;;;;;7.60;4.03;;;;;;;12.21;79.09;102494.16;5063360;28;20503;-72
2022/07/06 05:52:32;;;;;;;6.55;3.95;;;;;;;12.64;79.51;102501.94;5085749;28;20097;-72
2022/07/06 05:54:57;;;;;;;6.38;3.90;;;;;;;12.80;77.36;102511.03;5087321;28;20059;-72
2022/07/06 05:57:23;;;;;;;15.13;3.80;;;;;;;13.02;80.57;102505.25;5085720;28;20043;-72
2022/07/06 05:59:48;;;;;;;6.38;4.20;;;;;;;13.25;79.39;102510.34;5066922;28;20039;-71
2022/07/06 06:02:15;;;;;;;6.10;3.50;;;;;;;13.49;78.47;102509.91;5058171;28;20036;-73
2022/07/06 06:04:40;;;;;;;6.40;4.20;;;;;;;13.72;80.11;102505.81;5086710;28;20040;-73
2022/07/06 06:07:06;;;;;;;3.92;2.83;;;;;;;13.95;76.12;102508.06;5068238;28;20439;-72
2022/07/06 06:09:31;;;;;;;4.55;2.78;;;;;;;14.19;74.78;102513.03;5068377;28;20127;-73
2022/07/06 06:11:57;;;;;;;6.95;2.45;;;;;;;14.35;74.21;102515.69;5050842;28;20036;-71
2022/07/06 06:14:23;;;;;;;5.25;2.50;;;;;;;14.54;76.09;102513.59;5066707;28;20329;-72
2022/07/06 06:16:49;;;;;;;4.28;2.50;;;;;;;14.71;76.12;102513.44;5068192;28;20032;-72
2022/07/06 06:19:15;;;;;;;4.43;2.50;;;;;;;14.86;75.41;102516.16;5068045;28;20052;-72
2022/07/06 06:21:40;;;;;;;3.65;2.45;;;;;;;14.93;74.54;102512.06;5068747;28;20032;-73
2022/07/06 06:24:06;;;;;;;4.53;1.95;;;;;;;14.94;72.25;102511.09;5078346;28;20455;-72
2022/07/06 06:26:31;;;;;;;4.13;2.40;;;;;;;14.94;73.06;102511.97;5090061;28;20036;-73
2022/07/06 06:28:56;;;;;;;3.25;1.98;;;;;;;14.99;73.13;102517.16;5055686;28;20051;-73
2022/07/06 06:31:22;;;;;;;3.03;1.92;;;;;;;15.02;73.20;102520.59;5068551;28;20036;-72
2022/07/06 06:33:47;;;;;;;4.57;1.73;;;;;;;15.15;72.21;102512.41;5084268;28;20443;-71
2022/07/06 06:36:13;;;;;;;7.75;2.70;;;;;;;15.25;74.47;102501.75;5073064;28;20037;-73
2022/07/06 06:38:38;;;;;;;6.95;2.38;;;;;;;15.36;70.09;102509.28;5072806;28;20088;-72
2022/07/06 06:41:03;;;;;;;4.15;2.20;;;;;;;15.42;72.24;102511.59;5089576;28;20071;-70
2022/07/06 06:43:29;;;;;;;5.68;2.17;;;;;;;15.57;70.78;102519.72;5060543;28;20417;-72
2022/07/06 06:46:00;;;;;;;3.08;1.80;;;;;;;15.78;70.66;102517.41;5067343;28;20077;-72
2022/07/06 06:48:25;;;;;;;3.90;1.83;;;;;;;15.99;69.70;102515.06;5069044;28;20041;-71
2022/07/06 06:50:50;;;;;;;4.30;1.95;;;;;;;16.16;69.32;102516.63;5068146;28;20476;-71
2022/07/06 06:53:16;;;;;;;4.28;2.28;;;;;;;16.25;71.73;102517.88;5068601;28;20075;-72
2022/07/06 06:55:42;;;;;;;5.32;1.80;;;;;;;16.31;69.40;102518.31;5068357;28;20512;-72
2022/07/06 06:58:07;;;;;;;3.38;1.90;;;;;;;16.40;67.80;102522.28;5066491;28;20028;-74
2022/07/06 07:00:32;;;;;;;2.38;1.77;;;;;;;16.45;66.85;102527.44;5076400;28;20033;-73
2022/07/06 07:02:58;;;;;;;2.55;1.70;;;;;;;16.57;67.82;102519.22;5078502;28;20039;-73
2022/07/06 07:05:23;;;;;;;6.68;2.00;;;;;;;16.75;67.18;102521.69;5081598;28;20499;-70
2022/07/06 07:07:49;;;;;;;2.78;1.60;;;;;;;16.88;66.82;102521.66;5068724;28;20430;-71
2022/07/06 07:10:14;;;;;;;2.92;1.70;;;;;;;16.93;64.47;102527.72;5067805;28;20047;-73
2022/07/06 07:12:47;;;;;;;3.20;1.52;;;;;;;16.77;64.93;102520.56;5067541;28;20044;-73
2022/07/06 07:15:13;;;;;;;3.08;1.60;;;;;;;16.67;64.71;102521.31;5067549;28;20060;-73
2022/07/06 07:17:39;;;;;;;5.13;1.50;;;;;;;16.58;65.22;102525.59;5068362;28;20090;-71
2022/07/06 07:20:06;;;;;;;2.72;1.60;;;;;;;16.52;66.44;102526.91;5067532;28;20020;-70
2022/07/06 07:22:31;;;;;;;3.78;1.90;;;;;;;16.42;66.31;102523.06;5068879;28;20119;-72
2022/07/06 07:24:58;;;;;;;3.67;1.70;;;;;;;16.35;64.18;102527.22;5067485;28;20111;-72
2022/07/06 07:27:24;;;;;;;2.00;1.55;;;;;;;16.40;65.02;102521.41;5064572;28;20081;-72
2022/07/06 07:29:49;;;;;;;3.10;1.42;;;;;;;16.36;65.34;102528.97;5066942;28;20037;-73
2022/07/06 07:32:15;;;;;;;1.25;1.08;;;;;;;16.23;64.19;102519.84;5072033;28;20085;-72
2022/07/06 07:34:40;;;;;;;2.83;1.33;;;;;;;16.14;62.29;102526.84;5086158;28;20148;-72
2022/07/06 07:37:06;;;;;;;1.20;1.00;;;;;;;16.07;62.67;102533.75;5068500;28;20040;-73
2022/07/06 07:39:31;;;;;;;6.28;1.00;;;;;;;16.03;63.65;102534.94;5068652;28;20108;-74
2022/07/06 07:41:56;;;;;;;3.47;1.10;;;;;;;16.04;64.01;102543.09;5066135;28;20460;-74
2022/07/06 07:44:22;;;;;;;1.52;0.80;;;;;;;16.05;63.97;102533.84;5066817;28;20456;-73
2022/07/06 07:46:47;;;;;;;1.70;0.68;;;;;;;16.06;65.67;102532.00;5067726;28;20044;-73
2022/07/06 07:49:12;;;;;;;2.95;0.70;;;;;;;16.03;63.62;102526.69;5082659;28;20128;-71
2022/07/06 07:51:38;;;;;;;4.22;0.75;;;;;;;16.00;64.76;102532.41;5068827;28;20352;-73
2022/07/06 07:54:04;;;;;;;1.05;0.70;;;;;;;15.99;63.81;102534.28;5076562;28;20078;-68
2022/07/06 07:56:29;;;;;;;1.75;0.70;;;;;;;15.99;64.32;102538.88;5068033;28;20036;-72
2022/07/06 07:58:54;;;;;;;3.42;0.90;;;;;;;16.05;65.40;102531.13;5066159;28;20051;-72
2022/07/06 08:01:25;;;;;;;2.85;1.00;;;;;;;16.13;62.65;102525.06;5065489;28;20037;-73
2022/07/06 08:03:50;;;;;;;4.80;1.13;;;;;;;16.24;64.45;102521.59;5087222;28;20387;-73
2022/07/06 08:06:15;;;;;;;2.25;0.80;;;;;;;16.38;63.40;102523.38;5073984;28;20059;-74
2022/07/06 08:08:41;;;;;;;2.33;1.10;;;;;;;16.46;62.32;102518.22;5066943;28;20068;-73
2022/07/06 08:11:07;;;;;;;5.05;0.82;;;;;;;16.65;62.31;102507.69;5066983;28;20051;-72
2022/07/06 08:13:33;;;;;;;2.10;0.73;;;;;;;17.15;62.51;102513.28;5066195;28;20127;-71
2022/07/06 08:16:00;;;;;;;5.00;1.27;;;;;;;17.98;62.25;102508.81;5066067;28;20066;-72
2022/07/06 08:18:25;;;;;;;3.45;0.80;;;;;;;18.60;57.26;102508.53;5067503;28;20036;-72
2022/07/06 08:20:50;;;;;;;5.07;0.90;;;;;;;18.90;56.56;102511.72;5066382;28;20054;-72
2022/07/06 08:23:16;;;;;;;3.30;0.70;;;;;;;19.27;56.86;102510.44;5067056;28;20500;-73
2022/07/06 08:25:41;;;;;;;2.30;1.13;;;;;;;19.61;57.54;102513.16;5066927;28;20043;-70
2022/07/06 08:28:06;;;;;;;2.00;0.95;;;;;;;20.00;55.04;102519.94;5066099;28;20060;-72
2022/07/06 08:30:34;;;;;;;1.15;0.80;;;;;;;20.21;53.05;102508.06;5066827;28;20072;-73
2022/07/06 08:33:00;;;;;;;3.83;0.90;;;;;;;20.11;53.00;102507.97;5077624;28;20028;-71
2022/07/06 08:35:25;;;;;;;3.25;0.80;;;;;;;20.37;53.58;102502.94;5081288;28;20051;-72
2022/07/06 08:37:51;;;;;;;4.35;0.60;;;;;;;20.37;53.18;102503.81;5067092;28;20056;-71
2022/07/06 08:40:16;;;;;;;1.75;0.70;;;;;;;20.88;52.32;102502.09;5066453;28;20045;-73
2022/07/06 08:42:42;;;;;;;3.05;0.90;;;;;;;21.54;51.42;102501.63;5065078;28;20032;-73
2022/07/06 08:45:08;;;;;;;2.05;0.68;;;;;;;21.91;47.68;102499.06;5064448;28;20501;-72
2022/07/06 08:47:36;;;;;;;0.60;0.60;;;;;;;22.20;49.23;102504.66;5065544;28;20132;-70
2022/07/06 08:50:03;;;;;;;2.08;0.60;;;;;;;22.42;51.06;102504.34;5066595;28;20127;-71
2022/07/06 08:52:29;;;;;;;3.70;0.75;;;;;;;22.36;47.88;102499.38;5065935;28;20396;-72
2022/07/06 08:54:55;;;;;;;2.15;0.68;;;;;;;22.06;46.74;102494.00;5063834;28;20067;-73
2022/07/06 08:57:21;;;;;;;3.28;0.90;;;;;;;21.84;49.09;102495.16;5065670;28;20066;-72
2022/07/06 08:59:46;;;;;;;2.17;0.90;;;;;;;21.99;47.56;102493.69;5079396;28;20128;-72
2022/07/06 09:02:13;;;;;;;2.42;0.95;;;;;;;22.39;47.47;102498.22;5070271;28;20152;-71
2022/07/06 09:04:42;;;;;;;1.20;0.80;;;;;;;22.58;44.61;102494.53;5086768;28;20044;-72
2022/07/06 09:07:07;;;;;;;2.00;0.55;;;;;;;22.64;45.44;102489.25;5066458;28;20056;-74
2022/07/06 09:09:35;;;;;;;2.03;1.00;;;;;;;22.36;45.59;102491.06;5065259;28;20066;-73
2022/07/06 09:12:00;;;;;;;1.73;0.75;;;;;;;22.15;45.69;102485.72;5066216;28;20135;-71
2022/07/06 09:14:27;;;;;;;3.33;0.80;;;;;;;21.94;45.91;102495.16;5065101;28;20104;-72
2022/07/06 09:17:03;;;;;;;1.45;0.85;;;;;;;21.85;46.91;102486.69;5066450;28;20064;-73
2022/07/06 09:19:30;;;;;;;3.22;0.85;;;;;;;21.53;44.65;102489.69;5064737;28;20059;-71
2022/07/06 09:21:56;;;;;;;0.80;0.65;;;;;;;21.63;46.50;102485.03;5065178;28;20043;-73
2022/07/06 09:24:21;;;;;;;2.25;0.70;;;;;;;21.44;43.87;102486.91;5064307;28;20033;-71
2022/07/06 09:26:47;;;;;;;1.13;0.70;;;;;;;21.78;43.93;102490.19;5065792;28;20055;-68
2022/07/06 09:29:13;;;;;;;2.67;0.70;;;;;;;22.35;44.59;102489.31;5063721;28;20032;-72
2022/07/06 09:31:39;;;;;;;1.73;0.70;;;;;;;22.51;43.08;102488.69;5065797;28;20440;-72
2022/07/06 09:34:07;;;;;;;3.05;0.60;;;;;;;22.47;42.46;102495.56;5084428;28;20386;-72
2022/07/06 09:36:40;;;;;;;1.95;0.70;;;;;;;22.51;45.45;102494.25;5066196;28;20455;-72
2022/07/06 09:39:19;;;;;;;1.48;0.55;;;;;;;22.62;45.62;102496.00;5063929;28;20040;-72
2022/07/06 09:41:50;;;;;;;1.42;0.50;;;;;;;22.68;46.16;102498.16;5066122;28;20484;-73
2022/07/06 09:44:27;;;;;;;3.60;0.70;;;;;;;23.00;46.40;102494.16;5065315;28;20041;-68
2022/07/06 09:46:55;;;;;;;2.95;0.52;;;;;;;23.08;45.26;102497.03;5066242;28;20348;-73
2022/07/06 09:49:22;;;;;;;1.48;0.60;;;;;;;23.04;41.99;102503.94;5066060;28;20341;-73
2022/07/06 09:51:51;;;;;;;1.75;0.80;;;;;;;22.93;44.85;102502.19;5077420;28;20097;-71
2022/07/06 09:54:16;;;;;;;1.98;0.65;;;;;;;22.94;45.89;102501.16;5065853;28;20044;-71
2022/07/06 09:56:47;;;;;;;2.60;0.60;;;;;;;22.81;42.88;102509.81;5081049;28;20403;-72
2022/07/06 09:59:15;;;;;;;2.75;0.68;;;;;;;22.87;43.32;102506.44;5064216;28;20036;-73
2022/07/06 10:01:42;;;;;;;2.75;0.75;;;;;;;22.88;44.49;102505.41;5065299;28;20032;-72
2022/07/06 10:04:09;;;;;;;3.63;0.82;;;;;;;23.07;44.03;102504.47;5086118;28;20442;-71
2022/07/06 10:06:35;;;;;;;1.77;0.65;;;;;;;23.11;44.68;102502.28;5070290;28;20698;-70
2022/07/06 10:09:02;;;;;;;1.00;0.50;;;;;;;23.24;44.70;102504.72;5066036;28;20036;-73
2022/07/06 10:11:28;;;;;;;2.33;0.60;;;;;;;23.26;43.71;102506.28;5065320;28;20048;-71
2022/07/06 10:13:57;;;;;;;2.47;0.70;;;;;;;23.12;44.05;102506.78;5063974;28;20040;-73
2022/07/06 10:16:24;;;;;;;2.20;0.63;;;;;;;22.98;43.22;102508.16;5065626;28;20142;-72
2022/07/06 10:18:50;;;;;;;3.42;0.75;;;;;;;22.53;43.48;102513.53;5065471;28;20032;-73
2022/07/06 10:21:17;;;;;;;2.95;0.60;;;;;;;22.29;41.08;102508.44;5065324;28;20040;-73
2022/07/06 10:23:43;;;;;;;1.35;0.70;;;;;;;22.30;45.55;102513.84;5065522;28;20041;-73
2022/07/06 10:26:09;;;;;;;3.45;0.65;;;;;;;22.46;40.18;102510.47;5065860;28;20047;-72
2022/07/06 10:28:35;;;;;;;3.55;0.73;;;;;;;22.65;44.03;102509.56;5064507;28;20028;-72
2022/07/06 10:31:01;;;;;;;2.53;0.60;;;;;;;22.73;44.75;102508.81;5070093;28;20098;-74
2022/07/06 10:33:26;;;;;;;1.10;0.60;;;;;;;22.80;41.86;102505.28;5081545;28;20040;-73
2022/07/06 10:35:52;;;;;;;2.83;0.60;;;;;;;22.74;42.48;102508.66;5079474;28;20073;-73
2022/07/06 10:38:19;;;;;;;2.10;0.60;;;;;;;22.80;42.48;102509.94;5068699;28;20411;-72
2022/07/06 10:41:03;;;;;;;1.38;0.50;;;;;;;22.89;43.54;102498.84;5068788;28;20033;-72
2022/07/06 10:43:41;;;;;;;5.07;0.80;;;;;;;22.82;41.05;102503.22;5067553;28;20480;-72
2022/07/06 10:46:13;;;;;;;3.08;0.70;;;;;;;22.90;41.69;102499.75;5068720;28;20139;-72
2022/07/06 10:48:45;;;;;;;0.80;0.45;;;;;;;22.64;40.81;102503.13;5068878;28;20037;-69
2022/07/06 10:51:11;;;;;;;;;;;;;;;22.65;44.16;102507.66;5068465;28;20508;-73
2022/07/06 10:53:39;;;;;;;2.00;0.70;;;;;;;22.59;42.71;102516.56;5068851;28;20334;-74
2022/07/06 10:56:10;;;;;;;3.00;0.60;;;;;;;22.70;42.84;102500.78;5068746;28;20036;-73
2022/07/06 10:58:37;;;;;;;2.33;0.70;;;;;;;22.80;42.05;102496.06;5067661;28;20036;-73
2022/07/06 11:01:05;;;;;;;2.70;0.32;;;;;;;22.83;41.04;102495.78;5069359;28;20369;-72
2022/07/06 11:03:38;;;;;;;1.80;0.70;;;;;;;23.10;43.17;102492.19;5084295;28;20036;-72
2022/07/06 11:06:08;;;;;;;4.57;0.73;;;;;;;23.47;41.96;102489.38;5078212;28;20040;-68
2022/07/06 11:08:46;;;;;;;1.15;0.60;;;;;;;23.68;41.86;102497.44;5068683;28;20050;-70
2022/07/06 11:11:12;;;;;;;4.05;0.80;;;;;;;23.75;39.63;102489.38;5068443;28;20395;-72
2022/07/06 11:13:49;;;;;;;0.52;0.40;;;;;;;23.87;41.48;102496.44;5067307;28;20029;-72
2022/07/06 11:16:16;;;;;;;1.58;0.60;;;;;;;23.92;39.80;102496.81;5068094;28;20035;-72
2022/07/06 11:18:46;;;;;;;2.28;0.50;;;;;;;24.02;39.74;102500.44;5068173;28;20051;-72
2022/07/06 11:21:15;;;;;;;8.38;0.70;;;;;;;24.09;41.45;102486.75;5068288;28;20486;-72
2022/07/06 11:23:40;;;;;;;3.83;0.75;;;;;;;23.96;39.89;102491.81;5068111;28;20040;-73
2022/07/06 11:26:06;;;;;;;1.58;0.57;;;;;;;24.06;39.21;102489.84;5068220;28;20090;-71
2022/07/06 11:28:32;;;;;;;3.78;0.70;;;;;;;24.14;42.17;102484.34;5066612;28;20155;-74